»·PEaware :: N1507E KRNM-KSNA

N1507E :: KRNM-KSNA

FLIGHT INFORMATION

Flight Status: Arrived
Operator: Privately registered:
United States
More flights under this callsign
Pilot: Fabio L. (11512)
Aircraft: CESSNA T210 TURBO CENTURION
(T210)
More flights by this aircraft type
Origin: KRNM Ramona
United States
Destination: KSNA John Wayne-Orange Co
United States
More flights between these airports :: More routes between these airports
Route: +ROBNN V208 OCN V23 SLI
File this flight plan on PilotEdge
Remarks: TEC route SANP3
Altitude:
(Current/Filed)
6,000ft
Speed:
(Current/Filed)
130kts
Departed: 03-Dec-18 10:48 AM
Arrived: 03-Dec-18 11:25 AM
Distance/Time
Traveled:
61nm/0:36
Distance/Time
To Go:
Arrived

Flight Plot

Page will automatically refresh every two minutes.


Map Options




Map Legend


Flown Route
Filed Route
Departure Airport
Arrival Airport
Navaid (VOR, NDB)
Fix

Horizontal Profiles

Position Reports

Time Latitude Longitude Heading Altitude Ground
Speed
03-Dec-18 10:35 33.040034 -116.910029 282 1399ft 0kts
03-Dec-18 10:36 33.040034 -116.910029 282 1399ft 0kts
03-Dec-18 10:37 33.040034 -116.910029 282 1399ft 0kts
03-Dec-18 10:38 33.040034 -116.910029 282 1399ft 0kts
03-Dec-18 10:39 33.040034 -116.910029 282 1399ft 0kts
03-Dec-18 10:40 33.040034 -116.910029 282 1399ft 0kts
03-Dec-18 10:41 33.040034 -116.910029 282 1399ft 0kts
03-Dec-18 10:42 33.040034 -116.910029 282 1399ft 0kts
03-Dec-18 10:43 33.040034 -116.910029 282 1399ft 0kts
03-Dec-18 10:44 33.040034 -116.910029 282 1399ft 0kts
03-Dec-18 10:45 33.040034 -116.910029 282 1399ft 0kts
03-Dec-18 10:46 33.040037 -116.910091 262 1399ft 3kts
03-Dec-18 10:47 33.039363 -116.911727 280 1399ft 8kts
03-Dec-18 10:48 33.040251 -116.917869 279 1399ft 23kts
03-Dec-18 10:49 33.040822 -116.923116 208 1399ft 3kts
03-Dec-18 10:50 33.040616 -116.923136 177 1399ft 6kts
03-Dec-18 10:51 33.039127 -116.914772 98 1399ft 85kts
03-Dec-18 10:52 33.042997 -116.884665 98 2002ft 110kts
03-Dec-18 10:53 33.037634 -116.847587 99 2712ft 117kts
03-Dec-18 10:54 33.031553 -116.809233 99 3411ft 119kts
03-Dec-18 10:55 33.026058 -116.770254 73 4110ft 119kts
03-Dec-18 10:56 33.052573 -116.764367 341 4830ft 112kts
03-Dec-18 10:57 33.082186 -116.775988 338 5534ft 112kts
03-Dec-18 10:58 33.093598 -116.811952 289 5996ft 129kts
03-Dec-18 10:59 33.104760 -116.857125 288 6012ft 151kts
03-Dec-18 11:00 33.116584 -116.905491 288 6008ft 153kts
03-Dec-18 11:01 33.128328 -116.953590 288 6007ft 150kts
03-Dec-18 11:02 33.139912 -117.001196 289 6005ft 150kts
03-Dec-18 11:03 33.151519 -117.048975 289 6003ft 151kts
03-Dec-18 11:04 33.163174 -117.097050 289 6002ft 152kts
03-Dec-18 11:05 33.174927 -117.145620 290 6001ft 153kts
03-Dec-18 11:06 33.186528 -117.193657 289 6002ft 153kts
03-Dec-18 11:07 33.198196 -117.242058 289 6005ft 152kts
03-Dec-18 11:08 33.209828 -117.290406 289 6007ft 151kts
03-Dec-18 11:09 33.221337 -117.338322 289 6010ft 150kts
03-Dec-18 11:10 33.232732 -117.385853 289 6013ft 149kts
03-Dec-18 11:11 33.250580 -117.428348 318 6017ft 145kts
03-Dec-18 11:12 33.278944 -117.462763 317 6015ft 146kts
03-Dec-18 11:13 33.308067 -117.496751 318 6000ft 146kts
03-Dec-18 11:14 33.337155 -117.530640 318 6000ft 147kts
03-Dec-18 11:15 33.366314 -117.564671 319 6000ft 147kts
03-Dec-18 11:16 33.395537 -117.598813 319 6000ft 148kts
03-Dec-18 11:17 33.424960 -117.633204 316 5823ft 156kts
03-Dec-18 11:18 33.454000 -117.667208 316 5846ft 147kts
03-Dec-18 11:19 33.482478 -117.700583 316 5899ft 145kts
03-Dec-18 11:20 33.511199 -117.734295 316 5760ft 150kts
03-Dec-18 11:21 33.540797 -117.764702 339 5051ft 138kts
03-Dec-18 11:22 33.577832 -117.779072 342 4146ft 147kts
03-Dec-18 11:23 33.616803 -117.794002 342 3158ft 151kts
03-Dec-18 11:24 33.656266 -117.805878 340 2032ft 135kts
03-Dec-18 11:25 33.684488 -117.826004 312 1158ft 112kts
03-Dec-18 11:26 33.695511 -117.850777 246 742ft 84kts
03-Dec-18 11:27 33.679054 -117.866623 207 61ft 66kts
03-Dec-18 11:28 33.674765 -117.870910 15 60ft 13kts
03-Dec-18 11:29 33.675654 -117.871113 24 60ft 0kts

Navigation Log

Ident Type
Flight plan parsing failed, navigation log unavailable